الصفحة الرئيسية
METAR-TAF:

METAR-TAF

مطار :

مطار جناح الدولي

كراتشي, باكستان

دائرة عرض: 24-54N, خط طول: 067-08E, ارتفاع: 21 متر

مراقبة الطقس الحالي

تاريخ ووقت الإصدار 1ساعة و 12 دقيقة قبل الساعة 21:55UTC
ريح 5 عقدة من الغرب
درجة الحرارة 24°درجة مئوية
الرطوبة 69%
ضغط 1013 hPa
الرؤية: 6000 متر

METAR: OPKC 232155Z 27005KT 6000 NSC 24/18 Q1013 NOSIG

زمن: 04:07 (23:07 UTC)

توقعات

تاريخ ووقت الإصدار 4ساعات و 37 دقيقة قبل الساعة 18:30UTC
التوقعات صالحة من23 الساعة 21 UTC إلى 24 الساعة 06 UTC
ريح 7 عقدة من الغرب تتزايد حتى 17 عقدة
الرؤية: 6000 متر
غيوم متفرقة على ارتفاع 10000 قدم
مؤقت
من 24 الساعة 00 UTC إلى 24 الساعة 04 UTC
ريح 10 عقدة من الشمال الغربي
الرؤية: 4000 متر
غيوم قليلة على ارتفاع 4000 قدم
غيوم متفرقة على ارتفاع 10000 قدم
دخان

TAF: OPKC 231830Z 2321/2406 26007G17KT 6000 SCT100 TEMPO 2400/2404 32010KT 4000 FU FEW040 SCT100

أرصاد الطقس والتوقعات من أكثر من 4000 مطار (تقارير الطقس للمطار METAR والتنبؤ بالطقس بالمطارTAF).

المحطات المتاحة هي النقط الصفراء والحمراء على الخريطة.

حرك المؤشر فوق النقطة لمعرفة اسم المحطة.

ثم انقر لمعرفة أرصاد وتوقعات الطقس.

لتغيير الخارطة: اضغط على الأزرار الخضراء مع رمز الصليب الأسود للتكبير. على الزر الأخضر مع شرطة للتصغير، أو على الأسهم الخضراء للخرائط المجاورة.


METAR-TAF: